createdAt,value
2023-05-05T00:02:15.169Z,13.45
2023-05-05T00:04:41.931Z,16.27
2023-05-05T00:07:08.960Z,12.00
2023-05-05T00:09:35.579Z,12.88
2023-05-05T00:12:02.208Z,12.30
2023-05-05T00:14:28.798Z,12.73
2023-05-05T00:16:55.460Z,13.10
2023-05-05T00:19:22.061Z,13.70
2023-05-05T00:21:48.623Z,11.65
2023-05-05T00:24:15.372Z,11.32
2023-05-05T00:26:41.921Z,12.48
2023-05-05T00:29:08.629Z,9.40
2023-05-05T00:31:35.404Z,9.35
2023-05-05T00:34:02.079Z,8.75
2023-05-05T00:36:28.701Z,9.27
2023-05-05T00:38:55.364Z,8.63
2023-05-05T00:41:21.942Z,7.82
2023-05-05T00:43:48.729Z,8.40
2023-05-05T00:46:26.943Z,8.15
2023-05-05T00:48:54.823Z,8.70
2023-05-05T00:51:22.229Z,8.70
2023-05-05T00:53:49.520Z,8.55
2023-05-05T00:56:17.498Z,8.95
2023-05-05T00:58:44.558Z,11.02
2023-05-05T01:01:12.279Z,8.80
2023-05-05T01:03:39.640Z,7.80
2023-05-05T01:06:10.225Z,7.05
2023-05-05T01:09:13.451Z,8.25
2023-05-05T01:12:05.322Z,8.13
2023-05-05T01:14:43.370Z,11.05
2023-05-05T01:17:17.692Z,7.00
2023-05-05T01:20:13.259Z,7.45
2023-05-05T01:22:45.641Z,9.48
2023-05-05T01:25:33.502Z,7.97
2023-05-05T01:28:12.172Z,8.02
2023-05-05T01:30:59.120Z,8.75
2023-05-05T01:33:31.653Z,6.78
2023-05-05T01:36:04.270Z,6.40
2023-05-05T01:38:40.434Z,6.40
2023-05-05T01:41:22.081Z,7.45
2023-05-05T01:43:51.389Z,6.65
2023-05-05T01:46:21.783Z,5.65
2023-05-05T01:48:49.045Z,6.32
2023-05-05T01:51:18.059Z,6.32
2023-05-05T01:53:47.245Z,8.48
2023-05-05T01:56:15.492Z,6.40
2023-05-05T01:58:45.117Z,8.20
2023-05-05T02:01:13.353Z,7.88
2023-05-05T02:03:40.746Z,9.23
2023-05-05T02:06:08.393Z,8.20
2023-05-05T02:08:37.406Z,8.60
2023-05-05T02:11:05.395Z,7.45
2023-05-05T02:13:32.717Z,9.90
2023-05-05T02:16:00.443Z,8.52
2023-05-05T02:18:28.511Z,8.50
2023-05-05T02:20:55.171Z,8.00
2023-05-05T02:23:21.937Z,8.68
2023-05-05T02:25:57.450Z,10.45
2023-05-05T02:28:33.679Z,10.15
2023-05-05T02:31:00.878Z,8.93
2023-05-05T02:33:30.159Z,9.27
2023-05-05T02:35:57.392Z,9.50
2023-05-05T02:38:27.566Z,9.77
2023-05-05T02:40:56.810Z,9.77
2023-05-05T02:43:25.908Z,12.82
2023-05-05T02:45:52.634Z,9.50
2023-05-05T02:48:19.436Z,9.93
2023-05-05T02:50:46.086Z,11.30
2023-05-05T02:53:12.837Z,9.98
2023-05-05T02:55:45.337Z,9.73
2023-05-05T02:58:21.945Z,9.73
2023-05-05T03:01:19.816Z,8.88
2023-05-05T03:04:06.919Z,10.95
2023-05-05T03:06:57.491Z,10.07
2023-05-05T03:09:36.485Z,9.85
2023-05-05T03:12:07.124Z,10.07
2023-05-05T03:14:41.648Z,13.45
2023-05-05T03:17:11.714Z,12.38
2023-05-05T03:19:42.226Z,10.25
2023-05-05T03:22:09.358Z,9.63
2023-05-05T03:24:35.972Z,13.13
2023-05-05T03:27:03.101Z,8.98
2023-05-05T03:29:30.333Z,8.88
2023-05-05T03:31:57.164Z,10.55
2023-05-05T03:34:23.699Z,10.25
2023-05-05T03:36:50.217Z,9.50
2023-05-05T03:39:17.169Z,8.52
2023-05-05T03:41:43.719Z,9.63
2023-05-05T03:44:10.609Z,9.55
2023-05-05T03:46:37.223Z,9.02
2023-05-05T03:49:03.852Z,9.80
2023-05-05T03:51:31.610Z,9.93
2023-05-05T03:53:58.170Z,12.40
2023-05-05T03:56:24.768Z,10.65
2023-05-05T03:58:51.739Z,8.68
2023-05-05T04:01:18.268Z,9.43
2023-05-05T04:03:44.928Z,8.77
2023-05-05T04:06:11.642Z,9.88
2023-05-05T04:08:38.231Z,8.13
2023-05-05T04:11:04.929Z,8.55
2023-05-05T04:13:31.633Z,11.60
2023-05-05T04:15:59.797Z,9.25
2023-05-05T04:18:26.553Z,7.50
2023-05-05T04:20:53.215Z,7.68
2023-05-05T04:23:19.774Z,7.88
2023-05-05T04:25:46.454Z,8.88
2023-05-05T04:28:13.124Z,9.57
2023-05-05T04:30:39.704Z,8.15
2023-05-05T04:33:06.324Z,9.60
2023-05-05T04:35:32.980Z,8.18
2023-05-05T04:37:59.616Z,8.43
2023-05-05T04:40:29.038Z,9.75
2023-05-05T04:42:55.751Z,9.40
2023-05-05T04:45:22.319Z,9.68
2023-05-05T04:47:49.048Z,11.05
2023-05-05T04:50:16.631Z,9.70
2023-05-05T04:52:43.235Z,10.02
2023-05-05T04:55:11.016Z,10.30
2023-05-05T04:57:37.699Z,10.15
2023-05-05T05:00:05.490Z,11.73
2023-05-05T05:02:32.324Z,14.13
2023-05-05T05:04:59.038Z,12.05
2023-05-05T05:07:26.146Z,8.93
2023-05-05T05:09:52.755Z,9.38
2023-05-05T05:12:19.356Z,9.07
2023-05-05T05:14:45.900Z,9.70
2023-05-05T05:17:12.544Z,8.88
2023-05-05T05:19:39.293Z,10.85
2023-05-05T05:22:05.863Z,8.45
2023-05-05T05:24:32.536Z,12.45
2023-05-05T05:26:59.116Z,15.40
2023-05-05T05:29:27.089Z,11.07
2023-05-05T05:31:53.836Z,9.85
2023-05-05T05:34:20.464Z,11.38
2023-05-05T05:36:47.013Z,12.30
2023-05-05T05:39:13.578Z,8.50
2023-05-05T05:41:40.160Z,9.10
2023-05-05T05:44:06.796Z,8.85
2023-05-05T05:46:33.497Z,10.32
2023-05-05T05:49:00.279Z,8.85
2023-05-05T05:51:27.914Z,12.70
2023-05-05T05:53:55.406Z,9.52
2023-05-05T05:56:23.414Z,9.23
2023-05-05T05:58:50.130Z,8.90
2023-05-05T06:01:16.685Z,9.63
2023-05-05T06:03:43.340Z,13.38
2023-05-05T06:06:10.016Z,15.35
2023-05-05T06:08:36.574Z,10.30
2023-05-05T06:11:03.342Z,9.77
2023-05-05T06:13:29.912Z,10.35
2023-05-05T06:15:56.807Z,9.65
2023-05-05T06:18:23.724Z,15.32
2023-05-05T06:20:51.086Z,12.27
2023-05-05T06:23:18.310Z,9.75
2023-05-05T06:25:44.982Z,15.10
2023-05-05T06:28:11.637Z,12.00
2023-05-05T06:30:38.196Z,11.55
2023-05-05T06:33:04.811Z,9.48
2023-05-05T06:35:32.016Z,12.23
2023-05-05T06:37:58.739Z,12.38
2023-05-05T06:40:25.449Z,11.52
2023-05-05T06:42:51.960Z,10.63
2023-05-05T06:45:18.592Z,15.32
2023-05-05T06:47:45.194Z,12.00
2023-05-05T06:50:12.009Z,11.68
2023-05-05T06:52:38.596Z,12.68
2023-05-05T06:55:05.990Z,15.13
2023-05-05T06:57:32.709Z,15.48
2023-05-05T06:59:59.293Z,10.68
2023-05-05T07:02:26.947Z,11.48
2023-05-05T07:04:55.410Z,14.60
2023-05-05T07:07:22.484Z,14.93
2023-05-05T07:09:49.182Z,9.70
2023-05-05T07:12:15.812Z,11.68
2023-05-05T07:14:42.467Z,9.20
2023-05-05T07:17:09.030Z,9.18
2023-05-05T07:19:35.623Z,8.80
2023-05-05T07:22:02.173Z,11.25
2023-05-05T07:24:31.634Z,11.57
2023-05-05T07:26:59.347Z,10.80
2023-05-05T07:29:25.925Z,12.38
2023-05-05T07:31:52.504Z,10.82
2023-05-05T07:34:19.199Z,10.98
2023-05-05T07:36:45.836Z,14.68
2023-05-05T07:39:15.028Z,14.30
2023-05-05T07:41:42.555Z,15.15
2023-05-05T07:44:09.112Z,13.05
2023-05-05T07:46:35.775Z,11.07
2023-05-05T07:49:02.371Z,13.05
2023-05-05T07:51:28.970Z,16.70
2023-05-05T07:53:55.852Z,11.70
2023-05-05T07:56:22.651Z,12.32
2023-05-05T07:58:49.312Z,13.93
2023-05-05T08:01:15.980Z,19.95
2023-05-05T08:03:42.830Z,23.35
2023-05-05T08:06:09.996Z,24.38
2023-05-05T08:08:37.047Z,25.38
2023-05-05T08:11:06.532Z,26.52
2023-05-05T08:13:33.280Z,20.50
2023-05-05T08:16:00.092Z,27.08
2023-05-05T08:18:27.077Z,25.90
2023-05-05T08:20:54.666Z,22.77
2023-05-05T08:23:21.663Z,22.65
2023-05-05T08:25:48.253Z,21.27
2023-05-05T08:28:14.887Z,20.50
2023-05-05T08:30:41.805Z,17.65
2023-05-05T08:33:08.396Z,18.92
2023-05-05T08:35:35.060Z,17.67
2023-05-05T08:38:01.591Z,21.10
2023-05-05T08:40:36.606Z,18.85
2023-05-05T08:43:04.278Z,19.65
2023-05-05T08:45:31.367Z,18.40
2023-05-05T08:48:03.365Z,21.35
2023-05-05T08:50:30.864Z,20.48
2023-05-05T08:53:21.292Z,16.42
2023-05-05T08:55:52.487Z,16.77
2023-05-05T08:58:19.679Z,18.92
2023-05-05T09:00:46.692Z,16.35
2023-05-05T09:03:14.643Z,15.65
2023-05-05T09:05:42.778Z,12.88
2023-05-05T09:08:11.097Z,14.90
2023-05-05T09:10:41.443Z,15.40
2023-05-05T09:13:08.273Z,12.05
2023-05-05T09:15:34.979Z,9.95
2023-05-05T09:18:02.054Z,9.52
2023-05-05T09:20:37.005Z,10.88
2023-05-05T09:23:15.164Z,9.90
2023-05-05T09:25:45.123Z,7.82
2023-05-05T09:28:13.403Z,9.98
2023-05-05T09:30:42.005Z,7.82
2023-05-05T09:33:08.871Z,8.23
2023-05-05T09:35:53.182Z,8.27
2023-05-05T09:38:20.661Z,5.35
2023-05-05T09:40:49.486Z,6.57
2023-05-05T09:43:17.941Z,5.82
2023-05-05T09:45:44.885Z,11.35
2023-05-05T09:48:31.414Z,10.68
2023-05-05T09:50:58.766Z,6.18
2023-05-05T09:53:26.693Z,5.70
2023-05-05T09:55:54.306Z,12.65
2023-05-05T09:58:31.118Z,13.90
2023-05-05T10:00:58.866Z,8.52
2023-05-05T10:03:26.072Z,9.20
2023-05-05T10:05:57.668Z,9.63
2023-05-05T10:08:26.882Z,10.32
2023-05-05T10:10:57.744Z,13.38
2023-05-05T10:13:25.408Z,9.93
2023-05-05T10:15:54.447Z,13.52
2023-05-05T10:18:25.944Z,10.55
2023-05-05T10:21:01.205Z,10.23
2023-05-05T10:23:42.110Z,14.40
2023-05-05T10:26:13.000Z,10.48
2023-05-05T10:29:08.278Z,13.82
2023-05-05T10:31:47.668Z,12.10
2023-05-05T10:34:23.337Z,14.95
2023-05-05T10:36:51.417Z,10.55
2023-05-05T10:39:20.144Z,13.63
2023-05-05T10:41:48.188Z,10.30
2023-05-05T10:44:15.516Z,5.60
2023-05-05T10:46:43.109Z,3.25
2023-05-05T10:49:34.610Z,4.10
2023-05-05T10:52:08.711Z,2.53
2023-05-05T10:55:01.350Z,2.92
2023-05-05T10:57:32.126Z,2.00
2023-05-05T10:59:58.741Z,4.80
2023-05-05T11:02:26.864Z,3.65
2023-05-05T11:05:09.727Z,8.05
2023-05-05T11:07:37.418Z,6.10
2023-05-05T11:10:08.725Z,4.47
2023-05-05T11:13:03.448Z,3.47
2023-05-05T11:15:30.400Z,4.88
2023-05-05T11:18:05.731Z,2.55
2023-05-05T11:20:43.748Z,6.35
2023-05-05T11:23:10.396Z,4.40
2023-05-05T11:25:40.754Z,3.80
2023-05-05T11:28:18.392Z,5.88
2023-05-05T11:30:58.380Z,3.85
2023-05-05T11:33:37.166Z,3.38
2023-05-05T11:36:07.961Z,4.13
2023-05-05T11:38:56.484Z,3.58
2023-05-05T11:41:32.255Z,3.83
2023-05-05T11:44:29.251Z,1.63
2023-05-05T11:46:55.734Z,4.38
2023-05-05T11:49:29.912Z,1.67
2023-05-05T11:52:00.533Z,2.05
2023-05-05T11:54:28.181Z,1.40
2023-05-05T11:56:59.440Z,2.03
2023-05-05T11:59:26.110Z,1.80
2023-05-05T12:01:52.936Z,1.73
2023-05-05T12:04:20.652Z,2.85
2023-05-05T12:06:49.026Z,3.95
2023-05-05T12:09:20.259Z,3.17
2023-05-05T12:11:54.122Z,2.22
2023-05-05T12:14:21.796Z,6.55
2023-05-05T12:17:08.451Z,2.88
2023-05-05T12:19:36.301Z,2.60
2023-05-05T12:22:04.532Z,4.22
2023-05-05T12:24:31.730Z,4.10
2023-05-05T12:27:16.772Z,3.42
2023-05-05T12:29:43.311Z,3.13
2023-05-05T12:32:19.758Z,2.80
2023-05-05T12:34:46.786Z,3.35
2023-05-05T12:37:13.402Z,1.98
2023-05-05T12:39:39.972Z,1.55
2023-05-05T12:42:08.291Z,1.63
2023-05-05T12:44:39.324Z,2.70
2023-05-05T12:47:07.036Z,4.65
2023-05-05T12:49:53.062Z,2.88
2023-05-05T12:52:20.909Z,2.60
2023-05-05T12:54:59.502Z,3.83
2023-05-05T12:57:26.440Z,3.08
2023-05-05T12:59:53.738Z,2.72
2023-05-05T13:02:21.270Z,4.68
2023-05-05T13:04:53.369Z,8.68
2023-05-05T13:07:21.968Z,2.75
2023-05-05T13:09:49.938Z,6.53
2023-05-05T13:12:22.187Z,5.30
2023-05-05T13:17:17.116Z,4.32
2023-05-05T13:19:46.617Z,4.88
2023-05-05T13:22:13.758Z,2.75
2023-05-05T13:24:50.493Z,3.33
2023-05-05T13:27:22.286Z,4.88
2023-05-05T13:29:48.849Z,5.32
2023-05-05T13:32:15.566Z,4.38
2023-05-05T13:34:43.633Z,3.67
2023-05-05T13:37:10.528Z,2.85
2023-05-05T13:39:37.342Z,4.15
2023-05-05T13:42:04.133Z,3.58
2023-05-05T13:44:30.693Z,3.10
2023-05-05T13:46:57.699Z,2.90
2023-05-05T13:49:24.439Z,3.33
2023-05-05T13:51:51.241Z,4.10
2023-05-05T13:54:17.939Z,2.67
2023-05-05T13:56:44.932Z,5.03
2023-05-05T13:59:11.587Z,3.83
2023-05-05T14:01:38.421Z,3.72
2023-05-05T14:04:05.890Z,2.58
2023-05-05T14:06:33.715Z,2.83
2023-05-05T14:09:00.658Z,3.88
2023-05-05T14:11:27.555Z,2.25
2023-05-05T14:13:54.214Z,2.53
2023-05-05T14:16:20.986Z,4.32
2023-05-05T14:18:47.682Z,2.67
2023-05-05T14:21:14.302Z,3.05
2023-05-05T14:23:50.265Z,2.58
2023-05-05T14:26:16.950Z,2.90
2023-05-05T14:28:43.750Z,2.53
2023-05-05T14:31:11.343Z,4.50
2023-05-05T14:33:38.044Z,4.70
2023-05-05T14:36:05.076Z,2.45
2023-05-05T14:38:31.986Z,3.83
2023-05-05T14:40:58.598Z,2.47
2023-05-05T14:43:25.677Z,5.45
2023-05-05T14:45:53.095Z,3.47
2023-05-05T14:48:22.533Z,4.43
2023-05-05T14:50:50.033Z,3.47
2023-05-05T14:53:18.939Z,3.00
2023-05-05T14:55:45.574Z,2.45
2023-05-05T14:58:12.253Z,2.90
2023-05-05T15:00:39.045Z,1.92
2023-05-05T15:03:05.767Z,2.25
2023-05-05T15:05:32.548Z,3.88
2023-05-05T15:07:59.472Z,4.13
2023-05-05T15:10:26.340Z,2.33
2023-05-05T15:12:53.036Z,1.65
2023-05-05T15:15:19.949Z,2.22
2023-05-05T15:17:46.648Z,2.05
2023-05-05T15:20:13.325Z,1.92
2023-05-05T15:22:39.985Z,2.47
2023-05-05T15:25:10.861Z,2.15
2023-05-05T15:27:38.741Z,1.90
2023-05-05T15:30:06.568Z,1.80
2023-05-05T15:32:33.831Z,2.00
2023-05-05T15:35:00.665Z,1.77
2023-05-05T15:37:29.060Z,2.60
2023-05-05T15:39:56.306Z,3.25
2023-05-05T15:42:23.009Z,3.25
2023-05-05T15:44:49.613Z,3.10
2023-05-05T15:47:16.299Z,2.40
2023-05-05T15:49:42.995Z,3.05
2023-05-05T15:52:10.118Z,4.20
2023-05-05T15:54:36.678Z,3.88
2023-05-05T15:57:03.354Z,3.28
2023-05-05T15:59:29.960Z,3.58
2023-05-05T16:01:56.571Z,5.22
2023-05-05T16:04:23.207Z,5.07
2023-05-05T16:06:49.787Z,3.35
2023-05-05T16:09:16.542Z,2.58
2023-05-05T16:11:43.601Z,3.40
2023-05-05T16:14:10.261Z,2.78
2023-05-05T16:16:36.875Z,4.63
2023-05-05T16:19:03.567Z,2.50
2023-05-05T16:21:30.214Z,2.97
2023-05-05T16:23:57.040Z,4.30
2023-05-05T16:26:23.923Z,3.20
2023-05-05T16:28:50.473Z,6.22
2023-05-05T16:31:17.108Z,3.80
2023-05-05T16:33:44.140Z,4.00
2023-05-05T16:36:12.162Z,3.20
2023-05-05T16:38:42.462Z,3.47
2023-05-05T16:41:10.955Z,3.38
2023-05-05T16:43:37.575Z,4.28
2023-05-05T16:46:04.357Z,3.85
2023-05-05T16:48:31.053Z,4.03
2023-05-05T16:50:57.951Z,3.53
2023-05-05T16:53:25.522Z,5.80
2023-05-05T16:55:53.323Z,5.35
2023-05-05T16:58:21.336Z,4.65
2023-05-05T17:00:49.196Z,4.75
2023-05-05T17:03:20.354Z,4.53
2023-05-05T17:05:50.286Z,5.38
2023-05-05T17:08:17.463Z,5.55
2023-05-05T17:10:45.556Z,4.60
2023-05-05T17:13:13.949Z,5.57
2023-05-05T17:15:41.801Z,5.32
2023-05-05T17:18:08.905Z,5.07
2023-05-05T17:20:36.595Z,5.35
2023-05-05T17:23:03.643Z,6.13
2023-05-05T17:25:30.661Z,7.05
2023-05-05T17:27:57.572Z,5.43
2023-05-05T17:30:24.575Z,6.47
2023-05-05T17:32:51.513Z,5.70
2023-05-05T17:35:18.600Z,6.63
2023-05-05T17:37:45.270Z,7.32
2023-05-05T17:40:12.039Z,5.72
2023-05-05T17:42:39.311Z,6.10
2023-05-05T17:45:06.702Z,5.90
2023-05-05T17:47:33.606Z,7.25
2023-05-05T17:50:00.436Z,6.00
2023-05-05T17:52:27.065Z,7.47
2023-05-05T17:54:53.761Z,5.93
2023-05-05T17:57:23.282Z,5.45
2023-05-05T17:59:51.984Z,6.47
2023-05-05T18:02:19.149Z,7.30
2023-05-05T18:04:49.574Z,6.13
2023-05-05T18:07:19.000Z,8.35
2023-05-05T18:09:45.571Z,8.23
2023-05-05T18:12:12.512Z,10.77
2023-05-05T18:14:39.182Z,6.80
2023-05-05T18:17:05.829Z,6.00
2023-05-05T18:19:32.641Z,6.50
2023-05-05T18:21:59.423Z,5.72
2023-05-05T18:24:26.241Z,5.32
2023-05-05T18:26:53.209Z,6.85
2023-05-05T18:29:21.890Z,5.40
2023-05-05T18:31:51.747Z,6.20
2023-05-05T18:34:20.779Z,5.72
2023-05-05T18:36:48.141Z,9.05
2023-05-05T18:39:15.315Z,6.80
2023-05-05T18:41:42.111Z,7.80
2023-05-05T18:44:08.877Z,7.93
2023-05-05T18:46:35.762Z,5.95
2023-05-05T18:49:03.298Z,7.03
2023-05-05T18:51:30.033Z,6.15
2023-05-05T18:53:56.807Z,6.10
2023-05-05T18:56:23.508Z,6.75
2023-05-05T18:58:50.218Z,6.30
2023-05-05T19:01:17.061Z,8.18
2023-05-05T19:03:48.163Z,6.50
2023-05-05T19:06:15.541Z,6.45
2023-05-05T19:08:45.857Z,6.82
2023-05-05T19:11:14.881Z,6.68
2023-05-05T19:13:42.345Z,7.53
2023-05-05T19:16:11.268Z,7.38
2023-05-05T19:18:38.797Z,7.30
2023-05-05T19:21:05.945Z,7.90
2023-05-05T19:23:33.636Z,7.82
2023-05-05T19:26:00.733Z,7.97
2023-05-05T19:28:27.454Z,8.70
2023-05-05T19:30:54.287Z,9.65
2023-05-05T19:33:21.132Z,9.35
2023-05-05T19:35:48.039Z,13.02
2023-05-05T19:38:15.106Z,8.43
2023-05-05T19:40:43.617Z,9.73
2023-05-05T19:43:10.500Z,8.18
2023-05-05T19:45:37.584Z,7.80
2023-05-05T19:48:04.756Z,9.15
2023-05-05T19:50:31.850Z,8.45
2023-05-05T19:52:58.708Z,8.10
2023-05-05T19:55:25.822Z,10.20
2023-05-05T19:57:52.654Z,9.75
2023-05-05T20:00:20.046Z,8.95
2023-05-05T20:02:47.512Z,9.70
2023-05-05T20:05:16.376Z,8.90
2023-05-05T20:07:44.148Z,9.38
2023-05-05T20:10:13.443Z,8.75
2023-05-05T20:12:47.778Z,9.63
2023-05-05T20:15:18.654Z,11.43
2023-05-05T20:17:46.722Z,10.30
2023-05-05T20:20:20.529Z,11.00
2023-05-05T20:22:48.615Z,10.60
2023-05-05T20:25:16.423Z,11.98
2023-05-05T20:27:43.721Z,13.30
2023-05-05T20:30:11.774Z,10.75
2023-05-05T20:32:38.707Z,10.48
2023-05-05T20:35:06.230Z,11.57
2023-05-05T20:37:33.130Z,11.38
2023-05-05T20:39:59.763Z,11.52
2023-05-05T20:42:27.840Z,11.52
2023-05-05T20:44:54.706Z,10.38
2023-05-05T20:47:21.349Z,14.13
2023-05-05T20:49:48.176Z,11.57
2023-05-05T20:52:14.844Z,11.43
2023-05-05T20:54:41.463Z,11.55
2023-05-05T20:57:08.173Z,12.02
2023-05-05T20:59:34.824Z,11.57
2023-05-05T21:02:01.494Z,11.13
2023-05-05T21:04:28.166Z,11.90
2023-05-05T21:06:54.975Z,11.75
2023-05-05T21:09:22.190Z,11.85
2023-05-05T21:11:48.951Z,12.65
2023-05-05T21:14:15.868Z,15.18
2023-05-05T21:16:42.828Z,10.68
2023-05-05T21:19:09.566Z,13.75
2023-05-05T21:21:36.279Z,11.27
2023-05-05T21:24:04.350Z,10.70
2023-05-05T21:26:32.139Z,10.52
2023-05-05T21:28:58.896Z,10.95
2023-05-05T21:31:25.544Z,9.85
2023-05-05T21:33:52.162Z,11.15
2023-05-05T21:36:19.533Z,10.85
2023-05-05T21:38:46.327Z,10.95
2023-05-05T21:41:12.982Z,11.05
2023-05-05T21:43:39.553Z,11.82
2023-05-05T21:46:06.108Z,10.55
2023-05-05T21:48:32.909Z,11.38
2023-05-05T21:50:59.751Z,10.98
2023-05-05T21:53:26.380Z,10.77
2023-05-05T21:55:53.055Z,11.57
2023-05-05T21:58:19.810Z,11.73
2023-05-05T22:00:49.520Z,11.85
2023-05-05T22:03:16.455Z,13.60
2023-05-05T22:05:43.109Z,11.45
2023-05-05T22:08:09.668Z,11.95
2023-05-05T22:10:36.346Z,11.80
2023-05-05T22:13:02.956Z,12.25
2023-05-05T22:15:35.695Z,11.50
2023-05-05T22:18:09.719Z,11.65
2023-05-05T22:20:37.154Z,11.45
2023-05-05T22:23:03.743Z,12.45
2023-05-05T22:25:30.362Z,12.48
2023-05-05T22:27:57.005Z,12.10
2023-05-05T22:30:23.522Z,12.25
2023-05-05T22:32:50.195Z,12.50
2023-05-05T22:35:16.796Z,11.77
2023-05-05T22:37:43.555Z,12.23
2023-05-05T22:40:10.528Z,12.27
2023-05-05T22:42:37.220Z,11.65
2023-05-05T22:45:04.487Z,11.77
2023-05-05T22:47:31.226Z,12.27
2023-05-05T22:49:58.401Z,11.38
2023-05-05T22:52:25.785Z,11.65
2023-05-05T22:54:52.434Z,11.30
2023-05-05T22:57:19.274Z,11.07
2023-05-05T22:59:46.068Z,11.48
2023-05-05T23:02:12.749Z,11.02
2023-05-05T23:04:39.495Z,11.93
2023-05-05T23:07:06.131Z,11.30
2023-05-05T23:09:32.696Z,10.43
2023-05-05T23:11:59.329Z,11.40
2023-05-05T23:14:26.210Z,10.82
2023-05-05T23:16:52.916Z,11.07
2023-05-05T23:19:19.765Z,11.38
2023-05-05T23:21:53.314Z,11.98
2023-05-05T23:24:20.549Z,10.70
2023-05-05T23:26:47.125Z,11.05
2023-05-05T23:29:14.984Z,11.98
2023-05-05T23:31:41.725Z,10.25
2023-05-05T23:34:08.508Z,10.57
2023-05-05T23:36:35.238Z,12.38
2023-05-05T23:39:01.929Z,12.63
2023-05-05T23:41:28.533Z,11.55
2023-05-05T23:43:55.155Z,11.60
2023-05-05T23:46:21.795Z,11.02
2023-05-05T23:48:49.718Z,10.98
2023-05-05T23:51:16.844Z,12.15
2023-05-05T23:53:43.562Z,12.40
2023-05-05T23:56:10.121Z,11.38
2023-05-05T23:58:36.946Z,12.05
